Time;durP1;ratioP1;P1;durP2;ratioP2;P2;SDS_P1;SDS_P2;PMS_P1;PMS_P2;Temp;Humidity;BMP_temperature;BMP_pressure;BME280_temperature;BME280_humidity;BME280_pressure;Samples;Min_cycle;Max_cycle;Signal;HPM_P1;HPM_P2
2021/07/31 00:02:04;;;;;;;15.27;6.90;;;;;;;;;;5046585;28;20088;-63
2021/07/31 00:04:30;;;;;;;18.35;6.60;;;;;;;;;;5045862;28;20056;-63
2021/07/31 00:06:57;;;;;;;16.42;7.20;;;;;;;;;;5051983;28;20056;-63
2021/07/31 00:09:23;;;;;;;21.33;7.35;;;;;;;;;;5043287;28;20106;-63
2021/07/31 00:11:50;;;;;;;16.55;7.25;;;;;;;;;;5048972;28;20124;-63
2021/07/31 00:14:17;;;;;;;16.70;6.88;;;;;;;;;;5045367;28;20048;-63
2021/07/31 00:16:47;;;;;;;12.60;6.72;;;;;;;;;;5041537;28;20048;-63
2021/07/31 00:19:14;;;;;;;14.65;6.03;;;;;;;;;;5044155;28;20069;-63
2021/07/31 00:21:40;;;;;;;13.43;6.57;;;;;;;;;;5051309;28;20159;-63
2021/07/31 00:24:07;;;;;;;15.43;6.20;;;;;;;;;;5045166;28;20133;-63
2021/07/31 00:26:34;;;;;;;17.85;6.43;;;;;;;;;;5044337;28;20053;-63
2021/07/31 00:29:01;;;;;;;15.15;6.25;;;;;;;;;;5044983;28;20506;-64
2021/07/31 00:31:27;;;;;;;12.82;5.95;;;;;;;;;;5045986;28;20076;-63
2021/07/31 00:33:54;;;;;;;19.47;7.13;;;;;;;;;;5045823;28;20119;-63
2021/07/31 00:36:21;;;;;;;15.80;6.18;;;;;;;;;;5041196;28;20132;-63
2021/07/31 00:38:47;;;;;;;13.52;6.10;;;;;;;;;;5047301;28;20658;-63
2021/07/31 00:41:14;;;;;;;16.13;6.95;;;;;;;;;;5045301;28;20080;-63
2021/07/31 00:43:41;;;;;;;15.02;6.40;;;;;;;;;;5045194;28;20127;-63
2021/07/31 00:46:07;;;;;;;8.10;5.47;;;;;;;;;;5043058;28;20140;-63
2021/07/31 00:48:34;;;;;;;14.38;5.80;;;;;;;;;;5045525;28;20402;-63
2021/07/31 00:51:00;;;;;;;17.85;5.85;;;;;;;;;;5045173;28;20133;-63
2021/07/31 00:53:27;;;;;;;13.55;5.93;;;;;;;;;;5045519;28;20089;-63
2021/07/31 00:55:56;;;;;;;15.13;6.20;;;;;;;;;;5047098;28;20139;-63
2021/07/31 00:58:23;;;;;;;18.13;6.47;;;;;;;;;;5044785;28;20045;-63
2021/07/31 01:00:50;;;;;;;17.63;5.87;;;;;;;;;;5043891;28;20080;-63
2021/07/31 01:03:17;;;;;;;;;;;;;;;;;;5048498;28;20409;-63
2021/07/31 01:05:47;;;;;;;12.40;5.78;;;;;;;;;;5045094;28;19978;-63
2021/07/31 01:08:13;;;;;;;14.02;5.45;;;;;;;;;;5045313;28;20085;-63
2021/07/31 01:10:40;;;;;;;21.15;6.45;;;;;;;;;;5047175;28;20534;-63
2021/07/31 01:13:06;;;;;;;15.63;6.55;;;;;;;;;;5040375;28;20555;-63
2021/07/31 01:15:33;;;;;;;13.50;5.82;;;;;;;;;;5044136;28;20063;-63
2021/07/31 01:17:59;;;;;;;14.50;6.30;;;;;;;;;;5042125;28;20526;-63
2021/07/31 01:20:26;;;;;;;15.10;6.40;;;;;;;;;;5043291;28;20124;-63
2021/07/31 01:22:52;;;;;;;18.73;6.70;;;;;;;;;;5045520;28;20152;-64
2021/07/31 01:25:20;;;;;;;18.13;6.35;;;;;;;;;;5040718;28;20041;-63
2021/07/31 01:27:46;;;;;;;18.45;6.90;;;;;;;;;;5048547;28;20089;-64
2021/07/31 01:30:13;;;;;;;15.40;6.30;;;;;;;;;;5042240;28;20087;-63
2021/07/31 01:32:40;;;;;;;14.30;6.47;;;;;;;;;;5042571;28;20164;-63
2021/07/31 01:35:06;;;;;;;17.17;6.00;;;;;;;;;;5042818;28;20375;-63
2021/07/31 01:37:33;;;;;;;13.60;5.95;;;;;;;;;;5044690;28;20081;-63
2021/07/31 01:40:01;;;;;;;17.17;5.75;;;;;;;;;;5045051;28;20044;-63
2021/07/31 01:42:27;;;;;;;21.00;6.47;;;;;;;;;;5044325;28;20175;-63
2021/07/31 01:44:54;;;;;;;13.00;6.18;;;;;;;;;;5042629;28;20080;-63
2021/07/31 01:47:20;;;;;;;18.40;6.40;;;;;;;;;;5043603;28;20140;-63
2021/07/31 01:49:47;;;;;;;15.18;6.07;;;;;;;;;;5043975;28;20112;-63
2021/07/31 01:52:13;;;;;;;19.45;7.05;;;;;;;;;;5047308;28;20160;-63
2021/07/31 01:54:40;;;;;;;16.67;6.93;;;;;;;;;;5043023;28;20068;-63
2021/07/31 01:57:06;;;;;;;18.92;6.75;;;;;;;;;;5042667;28;20123;-63
2021/07/31 01:59:32;;;;;;;16.35;6.40;;;;;;;;;;5046268;28;20124;-63
2021/07/31 02:01:59;;;;;;;17.02;6.35;;;;;;;;;;5043077;28;20144;-63
2021/07/31 02:04:26;;;;;;;17.07;7.07;;;;;;;;;;5043550;28;20119;-63
2021/07/31 02:06:52;;;;;;;11.52;6.07;;;;;;;;;;5042985;28;20124;-63
2021/07/31 02:09:19;;;;;;;18.45;7.10;;;;;;;;;;5047450;28;20111;-63
2021/07/31 02:11:46;;;;;;;18.45;6.35;;;;;;;;;;5047961;28;20473;-63
2021/07/31 02:14:12;;;;;;;14.48;6.25;;;;;;;;;;5042018;28;20132;-63
2021/07/31 02:16:39;;;;;;;15.88;6.15;;;;;;;;;;5041645;28;20053;-63
2021/07/31 02:19:05;;;;;;;15.55;6.68;;;;;;;;;;5040436;28;20132;-63
2021/07/31 02:21:32;;;;;;;18.42;6.55;;;;;;;;;;5044221;28;20139;-63
2021/07/31 02:23:59;;;;;;;22.95;6.25;;;;;;;;;;5042644;28;20489;-63
2021/07/31 02:26:25;;;;;;;16.63;6.00;;;;;;;;;;5040875;28;20167;-63
2021/07/31 02:28:54;;;;;;;17.48;6.28;;;;;;;;;;5041172;28;20131;-63
2021/07/31 02:31:21;;;;;;;17.75;5.95;;;;;;;;;;5040570;28;20075;-63
2021/07/31 02:33:47;;;;;;;14.98;6.30;;;;;;;;;;5043662;28;20037;-63
2021/07/31 02:36:15;;;;;;;22.63;6.88;;;;;;;;;;5042935;28;20080;-63
2021/07/31 02:38:42;;;;;;;14.73;6.43;;;;;;;;;;5042665;28;20048;-64
2021/07/31 02:41:09;;;;;;;16.67;6.32;;;;;;;;;;5037063;28;20180;-64
2021/07/31 02:43:35;;;;;;;12.10;6.13;;;;;;;;;;5041092;28;20076;-64
2021/07/31 02:46:03;;;;;;;15.50;5.60;;;;;;;;;;5043905;28;20382;-63
2021/07/31 02:48:29;;;;;;;;;;;;;;;;;;5041238;28;20053;-63
2021/07/31 02:51:03;;;;;;;9.32;5.78;;;;;;;;;;5042854;28;19968;-64
2021/07/31 02:53:30;;;;;;;14.30;6.38;;;;;;;;;;5041111;28;20131;-63
2021/07/31 02:55:56;;;;;;;17.10;6.22;;;;;;;;;;5041948;28;20156;-63
2021/07/31 02:58:22;;;;;;;17.40;6.50;;;;;;;;;;5043580;28;20147;-64
2021/07/31 03:00:50;;;;;;;18.23;6.50;;;;;;;;;;5048332;28;20069;-64
2021/07/31 03:03:17;;;;;;;17.75;6.03;;;;;;;;;;5049076;28;20136;-64
2021/07/31 03:05:51;;;;;;;22.83;7.00;;;;;;;;;;5047818;28;20878;-64
2021/07/31 03:08:18;;;;;;;14.80;6.30;;;;;;;;;;5045873;28;20122;-63
2021/07/31 03:10:45;;;;;;;12.30;6.63;;;;;;;;;;5051034;28;20120;-63
2021/07/31 03:13:11;;;;;;;13.35;6.43;;;;;;;;;;5047128;28;20124;-64
2021/07/31 03:15:39;;;;;;;14.95;6.05;;;;;;;;;;5046774;28;20124;-64
2021/07/31 03:18:05;;;;;;;24.88;7.57;;;;;;;;;;5047951;28;20137;-63
2021/07/31 03:20:31;;;;;;;13.85;6.22;;;;;;;;;;5046485;28;20080;-63
2021/07/31 03:22:58;;;;;;;17.23;6.38;;;;;;;;;;5049963;28;20080;-63
2021/07/31 03:25:25;;;;;;;15.13;6.78;;;;;;;;;;5048618;28;20135;-64
2021/07/31 03:27:51;;;;;;;16.83;5.95;;;;;;;;;;5049215;28;20132;-64
2021/07/31 03:30:18;;;;;;;18.67;6.15;;;;;;;;;;5045552;28;20125;-64
2021/07/31 03:32:44;;;;;;;11.95;5.63;;;;;;;;;;5050089;28;20147;-63
2021/07/31 03:35:10;;;;;;;12.32;6.63;;;;;;;;;;5047813;28;20064;-64
2021/07/31 03:37:37;;;;;;;18.80;6.10;;;;;;;;;;5046088;28;20048;-63
2021/07/31 03:40:04;;;;;;;11.13;5.93;;;;;;;;;;5047627;28;20463;-63
2021/07/31 03:42:30;;;;;;;16.60;6.22;;;;;;;;;;5049888;28;20095;-63
2021/07/31 03:44:57;;;;;;;12.63;5.43;;;;;;;;;;5047588;28;20055;-64
2021/07/31 03:47:25;;;;;;;14.73;5.75;;;;;;;;;;5043414;28;20128;-63
2021/07/31 03:49:51;;;;;;;11.27;5.80;;;;;;;;;;5042075;28;20077;-64
2021/07/31 03:52:18;;;;;;;12.03;6.10;;;;;;;;;;5042638;28;20041;-64
2021/07/31 03:54:44;;;;;;;11.85;5.97;;;;;;;;;;5046739;28;20127;-64
2021/07/31 03:57:10;;;;;;;12.35;6.50;;;;;;;;;;5047338;28;20120;-64
2021/07/31 03:59:38;;;;;;;14.18;6.43;;;;;;;;;;5044541;28;20084;-63
2021/07/31 04:02:05;;;;;;;13.25;6.35;;;;;;;;;;5049544;28;20115;-64
2021/07/31 04:04:31;;;;;;;16.05;5.70;;;;;;;;;;5047300;28;20552;-64
2021/07/31 04:06:58;;;;;;;14.00;6.30;;;;;;;;;;5046514;28;20049;-64
2021/07/31 04:09:25;;;;;;;11.50;6.33;;;;;;;;;;5044135;28;20052;-64
2021/07/31 04:11:51;;;;;;;10.63;6.30;;;;;;;;;;5045992;28;20323;-64
2021/07/31 04:14:18;;;;;;;11.23;5.85;;;;;;;;;;5047214;28;20138;-64
2021/07/31 04:16:45;;;;;;;18.02;6.55;;;;;;;;;;5051601;28;20041;-64
2021/07/31 04:19:12;;;;;;;14.20;5.95;;;;;;;;;;5041627;28;20049;-63
2021/07/31 04:21:39;;;;;;;;;;;;;;;;;;5049283;28;20128;-63
2021/07/31 04:24:05;;;;;;;13.63;6.85;;;;;;;;;;5049072;28;20609;-63
2021/07/31 04:26:32;;;;;;;14.45;6.28;;;;;;;;;;5040138;28;20041;-64
2021/07/31 04:28:58;;;;;;;13.05;6.82;;;;;;;;;;5051015;28;20107;-64
2021/07/31 04:31:25;;;;;;;12.57;6.97;;;;;;;;;;5039964;28;20045;-64
2021/07/31 04:33:52;;;;;;;14.10;6.57;;;;;;;;;;5049884;28;20682;-63
2021/07/31 04:36:20;;;;;;;14.32;7.00;;;;;;;;;;5042101;28;20103;-63
2021/07/31 04:38:46;;;;;;;11.35;6.28;;;;;;;;;;5039812;28;20679;-63
2021/07/31 04:41:13;;;;;;;15.18;7.00;;;;;;;;;;5047255;28;20143;-64
2021/07/31 04:43:40;;;;;;;12.10;7.00;;;;;;;;;;5046494;28;20737;-64
2021/07/31 04:46:06;;;;;;;12.50;6.47;;;;;;;;;;5044988;28;20156;-64
2021/07/31 04:48:33;;;;;;;13.45;7.43;;;;;;;;;;5041923;28;20476;-64
2021/07/31 04:51:00;;;;;;;14.02;6.97;;;;;;;;;;5044193;28;20128;-64
2021/07/31 04:53:27;;;;;;;14.38;7.35;;;;;;;;;;5043720;28;20554;-64
2021/07/31 04:55:54;;;;;;;15.20;7.38;;;;;;;;;;5041379;28;20049;-64
2021/07/31 04:58:22;;;;;;;13.23;7.03;;;;;;;;;;5042085;28;20666;-63
2021/07/31 05:00:49;;;;;;;13.27;6.63;;;;;;;;;;5045141;28;20133;-64
2021/07/31 05:03:16;;;;;;;16.05;6.97;;;;;;;;;;5023821;28;20049;-63
2021/07/31 05:05:43;;;;;;;17.70;7.57;;;;;;;;;;5050428;28;20128;-64
2021/07/31 05:08:10;;;;;;;18.85;7.15;;;;;;;;;;5048288;28;20398;-64
2021/07/31 05:10:40;;;;;;;11.88;7.18;;;;;;;;;;5043001;28;20099;-63
2021/07/31 05:13:07;;;;;;;10.75;7.00;;;;;;;;;;5037231;28;20118;-64
2021/07/31 05:15:37;;;;;;;14.30;7.15;;;;;;;;;;5048507;28;20091;-63
2021/07/31 05:18:04;;;;;;;10.95;6.72;;;;;;;;;;5047794;28;20136;-63
2021/07/31 05:20:33;;;;;;;9.25;6.70;;;;;;;;;;5044439;28;20579;-64
2021/07/31 05:22:59;;;;;;;10.23;6.50;;;;;;;;;;5043256;28;20095;-64
2021/07/31 05:25:26;;;;;;;13.73;7.27;;;;;;;;;;5043954;28;20128;-63
2021/07/31 05:27:52;;;;;;;13.05;6.80;;;;;;;;;;5047173;28;20132;-63
2021/07/31 05:30:19;;;;;;;15.38;7.43;;;;;;;;;;5039202;28;20041;-63
2021/07/31 05:32:46;;;;;;;12.40;7.25;;;;;;;;;;5041051;28;20099;-63
2021/07/31 05:35:13;;;;;;;12.60;6.55;;;;;;;;;;5043243;28;20142;-64
2021/07/31 05:37:39;;;;;;;11.23;6.15;;;;;;;;;;5038947;28;20164;-63
2021/07/31 05:40:06;;;;;;;11.82;6.75;;;;;;;;;;5046475;28;20092;-63
2021/07/31 05:42:33;;;;;;;9.77;6.22;;;;;;;;;;5043542;28;20579;-64
2021/07/31 05:45:00;;;;;;;9.32;6.13;;;;;;;;;;5043358;28;20124;-63
2021/07/31 05:47:28;;;;;;;12.52;6.57;;;;;;;;;;5045481;28;20045;-63
2021/07/31 05:49:55;;;;;;;11.38;5.90;;;;;;;;;;5042874;28;20422;-63
2021/07/31 05:52:25;;;;;;;9.63;5.57;;;;;;;;;;5041302;28;20049;-63
2021/07/31 05:54:54;;;;;;;11.57;5.70;;;;;;;;;;5044332;28;20552;-63
2021/07/31 05:57:21;;;;;;;10.35;5.78;;;;;;;;;;5045732;28;20088;-63
2021/07/31 05:59:48;;;;;;;10.40;5.60;;;;;;;;;;5039888;28;20132;-63
2021/07/31 06:02:15;;;;;;;13.40;5.37;;;;;;;;;;5040248;28;20080;-63
2021/07/31 06:04:41;;;;;;;12.45;5.30;;;;;;;;;;5044869;28;20045;-63
2021/07/31 06:07:10;;;;;;;10.32;5.25;;;;;;;;;;5045419;28;20091;-62
2021/07/31 06:09:37;;;;;;;9.77;5.00;;;;;;;;;;5043258;28;20538;-62
2021/07/31 06:12:04;;;;;;;12.70;5.10;;;;;;;;;;5043262;28;20128;-62
2021/07/31 06:14:34;;;;;;;11.90;5.40;;;;;;;;;;5037944;28;20111;-63
2021/07/31 06:17:01;;;;;;;11.15;5.15;;;;;;;;;;5042020;28;20045;-62
2021/07/31 06:19:29;;;;;;;10.38;5.07;;;;;;;;;;5044031;28;20048;-62
2021/07/31 06:21:56;;;;;;;8.93;4.80;;;;;;;;;;5042059;28;20140;-62
2021/07/31 06:24:22;;;;;;;8.10;5.00;;;;;;;;;;5045016;28;20124;-62
2021/07/31 06:26:49;;;;;;;10.27;5.32;;;;;;;;;;5045452;28;20511;-62
2021/07/31 06:29:16;;;;;;;13.18;4.93;;;;;;;;;;5041878;28;20139;-62
2021/07/31 06:31:42;;;;;;;12.20;5.50;;;;;;;;;;5044846;28;20141;-62
2021/07/31 06:34:09;;;;;;;13.00;5.50;;;;;;;;;;5035656;28;20476;-63
2021/07/31 06:36:35;;;;;;;10.82;5.18;;;;;;;;;;5044187;28;20377;-62
2021/07/31 06:39:02;;;;;;;11.48;5.28;;;;;;;;;;5043518;28;20135;-62
2021/07/31 06:41:29;;;;;;;9.27;5.13;;;;;;;;;;5042082;28;20144;-62
2021/07/31 06:43:57;;;;;;;16.88;5.40;;;;;;;;;;5046135;28;20057;-62
2021/07/31 06:46:24;;;;;;;7.75;4.80;;;;;;;;;;5042245;28;20049;-62
2021/07/31 06:48:55;;;;;;;8.63;4.90;;;;;;;;;;5038471;28;20141;-62
2021/07/31 06:51:22;;;;;;;9.82;4.85;;;;;;;;;;5046922;28;20152;-62
2021/07/31 06:53:48;;;;;;;8.82;4.65;;;;;;;;;;5044244;28;20073;-62
2021/07/31 06:56:15;;;;;;;11.95;5.07;;;;;;;;;;5042815;28;20129;-62
2021/07/31 06:58:42;;;;;;;7.95;4.25;;;;;;;;;;5045374;28;20132;-62
2021/07/31 07:01:12;;;;;;;11.18;4.53;;;;;;;;;;5043223;28;20076;-62
2021/07/31 07:03:39;;;;;;;8.52;4.60;;;;;;;;;;5044355;28;20041;-62
2021/07/31 07:06:06;;;;;;;8.95;5.35;;;;;;;;;;5046659;28;20451;-62
2021/07/31 07:08:33;;;;;;;9.48;4.40;;;;;;;;;;5047199;28;20073;-62
2021/07/31 07:11:00;;;;;;;8.93;4.30;;;;;;;;;;5043944;28;20137;-62
2021/07/31 07:13:37;;;;;;;8.77;4.80;;;;;;;;;;5047448;28;20095;-62
2021/07/31 07:16:05;;;;;;;12.75;4.30;;;;;;;;;;5045957;28;20575;-62
2021/07/31 07:18:32;;;;;;;10.55;4.70;;;;;;;;;;5046278;28;20049;-62
2021/07/31 07:21:02;;;;;;;9.43;4.13;;;;;;;;;;5043678;28;20317;-62
2021/07/31 07:23:29;;;;;;;7.55;4.45;;;;;;;;;;5037783;28;20045;-62
2021/07/31 07:25:55;;;;;;;10.38;4.97;;;;;;;;;;5041264;28;20567;-62
2021/07/31 07:28:21;;;;;;;9.63;4.47;;;;;;;;;;5040446;28;20087;-62
2021/07/31 07:30:49;;;;;;;8.05;4.68;;;;;;;;;;5040114;28;20464;-62
2021/07/31 07:33:15;;;;;;;5.82;3.85;;;;;;;;;;5035050;28;20135;-62
2021/07/31 07:35:42;;;;;;;8.20;4.15;;;;;;;;;;5040144;28;20073;-62
2021/07/31 07:38:08;;;;;;;10.33;4.30;;;;;;;;;;5037604;28;20530;-62
2021/07/31 07:40:35;;;;;;;8.05;3.95;;;;;;;;;;5041552;28;20080;-62
2021/07/31 07:43:01;;;;;;;7.68;4.28;;;;;;;;;;5039336;28;20061;-62
2021/07/31 07:45:28;;;;;;;11.40;4.40;;;;;;;;;;5043467;28;20132;-62
2021/07/31 07:47:54;;;;;;;10.10;3.72;;;;;;;;;;5043439;28;20187;-62
2021/07/31 07:50:21;;;;;;;8.98;4.35;;;;;;;;;;5044614;28;20300;-63
2021/07/31 07:52:47;;;;;;;7.82;4.13;;;;;;;;;;5043526;28;20595;-62
2021/07/31 07:55:14;;;;;;;8.57;3.70;;;;;;;;;;5040529;28;20083;-63
2021/07/31 07:57:41;;;;;;;5.78;3.78;;;;;;;;;;5050165;28;20698;-63
2021/07/31 08:00:08;;;;;;;9.13;4.10;;;;;;;;;;5045776;28;20131;-63
2021/07/31 08:02:34;;;;;;;7.40;3.63;;;;;;;;;;5046596;28;20044;-62
2021/07/31 08:05:01;;;;;;;8.40;3.60;;;;;;;;;;5044937;28;20053;-62
2021/07/31 08:07:27;;;;;;;9.93;3.67;;;;;;;;;;5041279;28;20041;-63
2021/07/31 08:09:55;;;;;;;6.50;3.80;;;;;;;;;;5044383;28;20047;-62
2021/07/31 08:12:21;;;;;;;6.18;3.70;;;;;;;;;;5039987;28;20080;-62
2021/07/31 08:14:48;;;;;;;5.68;3.60;;;;;;;;;;5042166;28;20069;-62
2021/07/31 08:17:14;;;;;;;7.97;3.72;;;;;;;;;;5026449;28;20231;-62
2021/07/31 08:19:41;;;;;;;12.07;3.67;;;;;;;;;;5042313;28;20072;-63
2021/07/31 08:22:07;;;;;;;6.00;4.40;;;;;;;;;;5038420;28;20136;-63
2021/07/31 08:24:33;;;;;;;8.27;3.65;;;;;;;;;;5049178;28;20215;-63
2021/07/31 08:27:00;;;;;;;7.38;3.33;;;;;;;;;;5044766;28;20053;-62
2021/07/31 08:29:27;;;;;;;6.77;3.77;;;;;;;;;;5042675;28;20082;-64
2021/07/31 08:31:53;;;;;;;8.38;3.65;;;;;;;;;;5042508;28;20430;-62
2021/07/31 08:34:20;;;;;;;7.82;3.63;;;;;;;;;;5041103;28;20050;-63
2021/07/31 08:36:46;;;;;;;5.82;3.35;;;;;;;;;;5046898;28;20072;-63
2021/07/31 08:39:12;;;;;;;6.68;3.25;;;;;;;;;;5042935;28;20120;-63
2021/07/31 08:41:39;;;;;;;6.60;3.30;;;;;;;;;;5044345;28;20076;-62
2021/07/31 08:44:06;;;;;;;5.23;3.67;;;;;;;;;;5048780;28;20099;-65
2021/07/31 08:46:34;;;;;;;5.25;3.47;;;;;;;;;;5047930;28;20049;-62
2021/07/31 08:49:01;;;;;;;7.35;3.35;;;;;;;;;;5041201;28;20053;-62
2021/07/31 08:51:29;;;;;;;8.63;3.38;;;;;;;;;;5042103;28;20497;-63
2021/07/31 08:53:59;;;;;;;8.70;3.25;;;;;;;;;;5042216;28;20508;-63
2021/07/31 08:56:26;;;;;;;9.30;2.90;;;;;;;;;;5042771;28;20468;-62
2021/07/31 08:58:52;;;;;;;7.40;3.37;;;;;;;;;;5045561;28;20133;-62
2021/07/31 09:01:19;;;;;;;8.85;3.70;;;;;;;;;;5044329;28;20053;-63
2021/07/31 09:03:47;;;;;;;9.57;3.75;;;;;;;;;;5046178;28;20068;-63
2021/07/31 09:06:32;;;;;;;6.43;3.22;;;;;;;;;;5041616;28;20040;-63
2021/07/31 09:08:59;;;;;;;7.72;3.38;;;;;;;;;;5039091;28;20501;-62
2021/07/31 09:11:26;;;;;;;6.50;3.38;;;;;;;;;;5041773;28;20139;-63
2021/07/31 09:14:11;;;;;;;11.15;3.40;;;;;;;;;;5042825;28;20205;-63
2021/07/31 09:16:39;;;;;;;6.35;3.25;;;;;;;;;;5045673;28;20538;-62
2021/07/31 09:19:05;;;;;;;;;;;;;;;;;;5044088;28;20136;-62
2021/07/31 09:21:32;;;;;;;6.93;3.08;;;;;;;;;;5044273;28;20499;-62
2021/07/31 09:23:59;;;;;;;8.57;3.08;;;;;;;;;;5041069;28;20159;-63
2021/07/31 09:26:35;;;;;;;7.57;3.00;;;;;;;;;;5041374;28;20099;-63
2021/07/31 09:29:03;;;;;;;5.95;3.40;;;;;;;;;;5047114;28;20139;-63
2021/07/31 09:31:30;;;;;;;7.53;3.53;;;;;;;;;;5044460;28;20569;-62
2021/07/31 09:33:57;;;;;;;4.88;2.80;;;;;;;;;;5046066;28;20128;-63
2021/07/31 09:36:36;;;;;;;7.65;3.05;;;;;;;;;;5047030;28;20630;-63
2021/07/31 09:39:02;;;;;;;4.57;2.70;;;;;;;;;;5045448;28;20107;-62
2021/07/31 09:41:33;;;;;;;7.13;2.72;;;;;;;;;;5037290;28;20080;-63
2021/07/31 09:44:13;;;;;;;6.05;3.00;;;;;;;;;;5046794;28;20221;-62
2021/07/31 09:46:39;;;;;;;7.47;2.65;;;;;;;;;;5042285;28;20045;-62
2021/07/31 09:49:07;;;;;;;5.05;2.78;;;;;;;;;;5053405;28;20049;-62
2021/07/31 09:51:41;;;;;;;8.88;3.08;;;;;;;;;;5048210;28;20114;-62
2021/07/31 09:54:10;;;;;;;8.00;3.00;;;;;;;;;;5042841;28;20132;-62
2021/07/31 09:56:42;;;;;;;8.70;3.45;;;;;;;;;;5038223;28;20080;-62
2021/07/31 09:59:09;;;;;;;4.85;2.60;;;;;;;;;;5040889;28;20059;-62
2021/07/31 10:01:37;;;;;;;7.85;2.90;;;;;;;;;;5040664;28;20072;-62
2021/07/31 10:04:04;;;;;;;6.22;3.08;;;;;;;;;;5044522;28;20059;-62
2021/07/31 10:06:31;;;;;;;8.13;2.90;;;;;;;;;;5042150;28;20080;-62
2021/07/31 10:09:02;;;;;;;7.88;3.00;;;;;;;;;;5041846;28;20096;-62
2021/07/31 10:11:29;;;;;;;6.05;2.70;;;;;;;;;;5037400;28;20413;-62
2021/07/31 10:13:55;;;;;;;5.50;2.83;;;;;;;;;;5040584;28;20128;-62
2021/07/31 10:16:22;;;;;;;9.50;3.10;;;;;;;;;;5039810;28;20750;-63
2021/07/31 10:18:56;;;;;;;6.93;3.10;;;;;;;;;;5044804;28;20115;-62
2021/07/31 10:21:23;;;;;;;10.27;3.35;;;;;;;;;;5038409;28;20779;-62
2021/07/31 10:24:06;;;;;;;8.57;3.35;;;;;;;;;;5042389;28;20398;-62
2021/07/31 10:26:36;;;;;;;6.93;2.90;;;;;;;;;;5041109;28;20060;-62
2021/07/31 10:29:25;;;;;;;9.85;3.20;;;;;;;;;;5036798;28;20045;-62
2021/07/31 10:31:52;;;;;;;8.35;3.42;;;;;;;;;;5040798;28;20053;-62
2021/07/31 10:34:37;;;;;;;6.28;3.50;;;;;;;;;;5049138;28;20106;-62
2021/07/31 10:37:24;;;;;;;9.10;3.85;;;;;;;;;;5039699;28;20180;-62
2021/07/31 10:39:50;;;;;;;18.13;3.70;;;;;;;;;;5040416;28;20571;-62
2021/07/31 10:42:17;;;;;;;7.18;3.38;;;;;;;;;;5042346;28;20571;-62
2021/07/31 10:45:02;;;;;;;7.55;3.40;;;;;;;;;;5038181;28;20557;-62
2021/07/31 10:47:29;;;;;;;8.45;4.03;;;;;;;;;;5042084;28;20084;-62
2021/07/31 10:49:56;;;;;;;;;;;;;;;;;;5038963;28;20107;-62
2021/07/31 10:52:41;;;;;;;14.32;4.13;;;;;;;;;;5040795;28;20027;-62
2021/07/31 10:55:07;;;;;;;6.80;3.80;;;;;;;;;;5039715;28;20152;-62
2021/07/31 10:57:52;;;;;;;8.93;3.60;;;;;;;;;;5050089;28;20076;-62
2021/07/31 11:00:20;;;;;;;13.93;4.63;;;;;;;;;;5035095;28;20052;-62
2021/07/31 11:02:46;;;;;;;7.47;4.30;;;;;;;;;;5036434;28;20056;-62
2021/07/31 11:05:13;;;;;;;12.90;4.23;;;;;;;;;;5040616;28;20057;-63
2021/07/31 11:07:57;;;;;;;13.17;4.83;;;;;;;;;;5037079;28;20353;-62
2021/07/31 11:10:34;;;;;;;13.32;4.22;;;;;;;;;;5039062;28;20084;-62
2021/07/31 11:13:01;;;;;;;10.23;3.60;;;;;;;;;;5041297;28;20052;-62
2021/07/31 11:15:28;;;;;;;7.40;3.73;;;;;;;;;;5043587;28;20558;-62
2021/07/31 11:17:59;;;;;;;9.97;3.97;;;;;;;;;;5040008;28;20091;-62
2021/07/31 11:20:27;;;;;;;7.53;3.53;;;;;;;;;;5045845;28;20045;-62
2021/07/31 11:22:54;;;;;;;9.05;3.50;;;;;;;;;;5048966;28;20076;-62
2021/07/31 11:25:21;;;;;;;10.65;4.32;;;;;;;;;;5039369;28;20499;-62
2021/07/31 11:28:01;;;;;;;13.70;4.22;;;;;;;;;;5047860;28;20077;-62
2021/07/31 11:30:41;;;;;;;6.82;3.65;;;;;;;;;;5037978;28;20471;-62
2021/07/31 11:33:13;;;;;;;6.15;3.65;;;;;;;;;;5043266;28;20051;-62
2021/07/31 11:35:40;;;;;;;5.25;3.47;;;;;;;;;;5042163;28;20131;-62
2021/07/31 11:38:25;;;;;;;8.63;3.88;;;;;;;;;;5047247;28;20045;-62
2021/07/31 11:40:56;;;;;;;7.63;3.70;;;;;;;;;;5044826;28;20139;-63
2021/07/31 11:43:22;;;;;;;8.18;3.85;;;;;;;;;;5049516;28;20103;-63
2021/07/31 11:45:48;;;;;;;10.02;4.03;;;;;;;;;;5043139;28;20132;-62
2021/07/31 11:48:15;;;;;;;6.50;3.97;;;;;;;;;;5045145;28;20057;-62
2021/07/31 11:51:01;;;;;;;8.68;4.00;;;;;;;;;;5043737;28;20087;-62
2021/07/31 11:53:28;;;;;;;7.30;4.00;;;;;;;;;;5044019;28;20080;-62
2021/07/31 11:56:09;;;;;;;7.00;4.00;;;;;;;;;;5043340;28;20076;-62
2021/07/31 11:58:37;;;;;;;9.75;3.88;;;;;;;;;;5044575;28;20561;-62
2021/07/31 12:01:04;;;;;;;9.27;3.75;;;;;;;;;;5040010;28;20140;-62
2021/07/31 12:03:43;;;;;;;7.20;3.65;;;;;;;;;;5048419;28;20534;-62
2021/07/31 12:06:28;;;;;;;8.55;4.43;;;;;;;;;;5045040;28;20745;-62
2021/07/31 12:08:58;;;;;;;8.48;4.22;;;;;;;;;;5046652;28;20495;-62
2021/07/31 12:11:41;;;;;;;8.38;3.80;;;;;;;;;;5048972;28;20131;-62
2021/07/31 12:14:26;;;;;;;9.40;3.90;;;;;;;;;;5042150;28;20187;-62
2021/07/31 12:16:53;;;;;;;10.38;4.20;;;;;;;;;;5049579;28;20045;-62
2021/07/31 12:19:19;;;;;;;14.65;5.40;;;;;;;;;;5044613;28;20717;-62
2021/07/31 12:21:45;;;;;;;9.38;4.38;;;;;;;;;;5048036;28;20045;-62
2021/07/31 12:24:16;;;;;;;8.03;4.17;;;;;;;;;;5045903;28;20507;-62
2021/07/31 12:26:51;;;;;;;6.70;4.07;;;;;;;;;;5044366;28;20073;-62
2021/07/31 12:29:33;;;;;;;12.45;4.30;;;;;;;;;;5042145;28;20489;-62
2021/07/31 12:32:18;;;;;;;7.82;3.78;;;;;;;;;;5047025;28;20071;-62
2021/07/31 12:34:45;;;;;;;7.50;3.80;;;;;;;;;;5046033;28;20082;-62
2021/07/31 12:37:11;;;;;;;12.00;4.35;;;;;;;;;;5046495;28;20136;-62
2021/07/31 12:39:38;;;;;;;9.95;4.20;;;;;;;;;;5040801;28;20136;-62
2021/07/31 12:42:05;;;;;;;7.40;4.20;;;;;;;;;;5044578;28;20156;-62
2021/07/31 12:44:31;;;;;;;8.67;4.00;;;;;;;;;;5039164;28;20386;-62
2021/07/31 12:46:57;;;;;;;12.40;4.07;;;;;;;;;;5045697;28;20132;-62
2021/07/31 12:49:24;;;;;;;13.63;4.45;;;;;;;;;;5043448;28;20049;-62
2021/07/31 12:51:51;;;;;;;12.60;4.38;;;;;;;;;;5037668;28;20790;-62
2021/07/31 12:54:17;;;;;;;10.68;4.43;;;;;;;;;;5045196;28;20137;-62
2021/07/31 12:56:44;;;;;;;8.23;4.23;;;;;;;;;;5047748;28;20048;-62
2021/07/31 12:59:10;;;;;;;8.70;4.32;;;;;;;;;;5042143;28;20386;-62
2021/07/31 13:01:36;;;;;;;11.85;5.03;;;;;;;;;;5043063;28;20544;-62
2021/07/31 13:04:04;;;;;;;9.32;4.22;;;;;;;;;;5038088;28;20057;-62
2021/07/31 13:06:30;;;;;;;8.93;4.35;;;;;;;;;;5041591;28;20037;-62
2021/07/31 13:08:57;;;;;;;14.80;5.50;;;;;;;;;;5042881;28;20098;-61
2021/07/31 13:11:23;;;;;;;11.95;5.75;;;;;;;;;;5049298;28;20081;-61
2021/07/31 13:13:50;;;;;;;14.45;5.55;;;;;;;;;;5038505;28;20179;-60
2021/07/31 13:16:16;;;;;;;12.50;5.15;;;;;;;;;;5044327;28;20059;-60
2021/07/31 13:18:43;;;;;;;12.33;5.90;;;;;;;;;;5041743;28;20132;-61
2021/07/31 13:21:10;;;;;;;9.27;5.75;;;;;;;;;;5038758;28;20393;-61
2021/07/31 13:23:36;;;;;;;10.68;6.18;;;;;;;;;;5040733;28;20076;-61
2021/07/31 13:26:03;;;;;;;13.68;5.50;;;;;;;;;;5044509;28;20148;-62
2021/07/31 13:28:30;;;;;;;12.30;6.22;;;;;;;;;;5043248;28;20508;-61
2021/07/31 13:30:57;;;;;;;11.52;5.45;;;;;;;;;;5039698;28;20485;-61
2021/07/31 13:33:24;;;;;;;11.32;5.55;;;;;;;;;;5046733;28;20076;-61
2021/07/31 13:35:51;;;;;;;10.80;5.38;;;;;;;;;;5019362;28;20161;-61
2021/07/31 13:38:19;;;;;;;11.77;5.68;;;;;;;;;;5045854;28;20135;-61
2021/07/31 13:40:46;;;;;;;13.55;5.68;;;;;;;;;;5041229;28;20480;-61
2021/07/31 13:43:15;;;;;;;8.23;5.43;;;;;;;;;;5045032;28;20686;-61
2021/07/31 13:45:42;;;;;;;10.85;5.22;;;;;;;;;;5046319;28;20076;-61
2021/07/31 13:48:09;;;;;;;12.77;5.40;;;;;;;;;;5041187;28;20081;-61
2021/07/31 13:50:35;;;;;;;13.00;5.78;;;;;;;;;;5046988;28;20144;-61
2021/07/31 13:53:01;;;;;;;11.25;5.00;;;;;;;;;;5038944;28;20426;-61
2021/07/31 13:55:28;;;;;;;11.90;4.93;;;;;;;;;;5040878;28;20140;-61
2021/07/31 13:57:55;;;;;;;9.25;4.90;;;;;;;;;;5039142;28;20403;-61
2021/07/31 14:00:21;;;;;;;10.35;5.13;;;;;;;;;;5045765;28;20571;-60
2021/07/31 14:02:48;;;;;;;10.70;4.20;;;;;;;;;;5047120;28;20048;-60
2021/07/31 14:05:15;;;;;;;5.68;3.60;;;;;;;;;;5040114;28;20069;-61
2021/07/31 14:07:42;;;;;;;7.95;3.00;;;;;;;;;;5043455;28;20052;-60
2021/07/31 14:10:09;;;;;;;;;;;;;;;;;;5043080;28;20084;-60
2021/07/31 14:12:35;;;;;;;6.65;3.63;;;;;;;;;;5044713;28;20582;-60
2021/07/31 14:15:03;;;;;;;;;;;;;;;;;;5046553;28;20055;-60
2021/07/31 14:17:29;;;;;;;8.38;3.70;;;;;;;;;;5043935;28;20003;-60
2021/07/31 14:19:55;;;;;;;12.07;3.95;;;;;;;;;;5041363;28;20186;-60
2021/07/31 14:22:22;;;;;;;9.20;4.05;;;;;;;;;;5039150;28;20144;-60
2021/07/31 14:24:48;;;;;;;6.77;3.37;;;;;;;;;;5044480;28;20128;-60
2021/07/31 14:27:15;;;;;;;4.07;3.10;;;;;;;;;;5041276;28;20145;-60
2021/07/31 14:29:42;;;;;;;7.47;3.45;;;;;;;;;;5040231;28;20149;-60
2021/07/31 14:32:09;;;;;;;5.97;3.40;;;;;;;;;;5036665;28;20156;-60
2021/07/31 14:34:36;;;;;;;8.32;3.20;;;;;;;;;;5043176;28;20107;-60
2021/07/31 14:37:03;;;;;;;3.67;2.78;;;;;;;;;;5041313;28;20435;-60
2021/07/31 14:39:31;;;;;;;8.38;3.40;;;;;;;;;;5043839;28;20045;-60
2021/07/31 14:41:57;;;;;;;6.53;3.40;;;;;;;;;;5039435;28;20532;-60
2021/07/31 14:44:24;;;;;;;6.83;3.90;;;;;;;;;;5044198;28;20128;-60